sensor_id;sensor_type;location;lat;lon;timestamp;P1;durP1;ratioP1;P2;durP2;ratioP2
25609;SDS011;13479;49.044;8.716;2023-06-04T04:00:43;2.35;;;1.15;;
25609;SDS011;13479;49.044;8.716;2023-06-04T04:03:08;3.55;;;1.20;;
25609;SDS011;13479;49.044;8.716;2023-06-04T04:05:34;2.85;;;1.00;;
25609;SDS011;13479;49.044;8.716;2023-06-04T04:08:00;6.75;;;1.20;;
25609;SDS011;13479;49.044;8.716;2023-06-04T04:10:26;2.28;;;1.00;;
25609;SDS011;13479;49.044;8.716;2023-06-04T04:12:51;3.75;;;0.90;;
25609;SDS011;13479;49.044;8.716;2023-06-04T04:15:19;2.50;;;0.93;;
25609;SDS011;13479;49.044;8.716;2023-06-04T04:17:45;3.53;;;1.10;;
25609;SDS011;13479;49.044;8.716;2023-06-04T04:20:10;2.10;;;1.05;;
25609;SDS011;13479;49.044;8.716;2023-06-04T04:22:39;2.08;;;1.05;;
25609;SDS011;13479;49.044;8.716;2023-06-04T04:25:05;3.08;;;1.00;;
25609;SDS011;13479;49.044;8.716;2023-06-04T04:27:32;2.10;;;1.02;;
25609;SDS011;13479;49.044;8.716;2023-06-04T04:30:00;3.03;;;1.10;;
25609;SDS011;13479;49.044;8.716;2023-06-04T04:32:25;5.35;;;1.20;;
25609;SDS011;13479;49.044;8.716;2023-06-04T04:34:52;4.18;;;1.10;;
25609;SDS011;13479;49.044;8.716;2023-06-04T04:37:19;2.25;;;1.15;;
25609;SDS011;13479;49.044;8.716;2023-06-04T04:39:46;4.57;;;1.23;;
25609;SDS011;13479;49.044;8.716;2023-06-04T04:42:12;2.40;;;0.95;;
25609;SDS011;13479;49.044;8.716;2023-06-04T04:44:37;2.22;;;1.10;;
25609;SDS011;13479;49.044;8.716;2023-06-04T04:47:03;3.15;;;0.90;;
25609;SDS011;13479;49.044;8.716;2023-06-04T04:49:28;2.38;;;0.93;;
25609;SDS011;13479;49.044;8.716;2023-06-04T04:51:53;5.00;;;1.25;;
25609;SDS011;13479;49.044;8.716;2023-06-04T04:54:19;4.55;;;1.35;;
25609;SDS011;13479;49.044;8.716;2023-06-04T04:56:44;3.28;;;1.30;;
25609;SDS011;13479;49.044;8.716;2023-06-04T04:59:10;3.67;;;1.20;;
25609;SDS011;13479;49.044;8.716;2023-06-04T05:01:35;4.85;;;1.35;;
25609;SDS011;13479;49.044;8.716;2023-06-04T05:04:00;7.13;;;0.93;;
25609;SDS011;13479;49.044;8.716;2023-06-04T05:06:25;2.08;;;0.98;;
25609;SDS011;13479;49.044;8.716;2023-06-04T05:08:51;1.90;;;0.90;;
25609;SDS011;13479;49.044;8.716;2023-06-04T05:11:16;1.35;;;0.82;;
25609;SDS011;13479;49.044;8.716;2023-06-04T05:13:41;3.25;;;1.08;;
25609;SDS011;13479;49.044;8.716;2023-06-04T05:16:07;3.47;;;1.10;;
25609;SDS011;13479;49.044;8.716;2023-06-04T05:18:33;3.97;;;0.90;;
25609;SDS011;13479;49.044;8.716;2023-06-04T05:20:59;4.25;;;1.10;;
25609;SDS011;13479;49.044;8.716;2023-06-04T05:23:28;2.17;;;1.15;;
25609;SDS011;13479;49.044;8.716;2023-06-04T05:25:59;2.58;;;1.20;;
25609;SDS011;13479;49.044;8.716;2023-06-04T05:28:24;2.03;;;1.30;;
25609;SDS011;13479;49.044;8.716;2023-06-04T05:30:50;4.07;;;1.48;;
25609;SDS011;13479;49.044;8.716;2023-06-04T05:33:17;2.35;;;1.33;;
25609;SDS011;13479;49.044;8.716;2023-06-04T05:35:43;3.35;;;1.10;;
25609;SDS011;13479;49.044;8.716;2023-06-04T05:38:10;1.90;;;1.30;;
25609;SDS011;13479;49.044;8.716;2023-06-04T05:40:42;3.63;;;1.02;;
25609;SDS011;13479;49.044;8.716;2023-06-04T05:43:07;2.50;;;1.30;;
25609;SDS011;13479;49.044;8.716;2023-06-04T05:45:32;2.25;;;1.27;;
25609;SDS011;13479;49.044;8.716;2023-06-04T05:47:58;1.98;;;1.25;;
25609;SDS011;13479;49.044;8.716;2023-06-04T05:50:23;3.60;;;1.20;;
25609;SDS011;13479;49.044;8.716;2023-06-04T05:52:48;1.95;;;1.20;;
25609;SDS011;13479;49.044;8.716;2023-06-04T05:55:14;3.45;;;1.20;;
25609;SDS011;13479;49.044;8.716;2023-06-04T05:57:41;2.88;;;1.33;;
25609;SDS011;13479;49.044;8.716;2023-06-04T06:00:07;3.58;;;1.40;;
25609;SDS011;13479;49.044;8.716;2023-06-04T06:02:35;2.88;;;1.30;;
25609;SDS011;13479;49.044;8.716;2023-06-04T06:05:01;2.58;;;1.20;;
25609;SDS011;13479;49.044;8.716;2023-06-04T06:07:26;2.67;;;1.30;;
25609;SDS011;13479;49.044;8.716;2023-06-04T06:09:51;3.42;;;1.33;;
25609;SDS011;13479;49.044;8.716;2023-06-04T06:12:17;2.17;;;1.50;;
25609;SDS011;13479;49.044;8.716;2023-06-04T06:14:42;2.53;;;1.48;;
25609;SDS011;13479;49.044;8.716;2023-06-04T06:17:07;2.53;;;1.13;;
25609;SDS011;13479;49.044;8.716;2023-06-04T06:19:32;3.15;;;1.40;;
25609;SDS011;13479;49.044;8.716;2023-06-04T06:21:58;4.07;;;1.40;;
25609;SDS011;13479;49.044;8.716;2023-06-04T06:24:23;3.58;;;1.50;;
25609;SDS011;13479;49.044;8.716;2023-06-04T06:26:49;3.28;;;1.30;;
25609;SDS011;13479;49.044;8.716;2023-06-04T06:29:14;2.58;;;1.30;;
25609;SDS011;13479;49.044;8.716;2023-06-04T06:31:39;3.00;;;1.30;;
25609;SDS011;13479;49.044;8.716;2023-06-04T06:34:05;1.80;;;1.23;;
25609;SDS011;13479;49.044;8.716;2023-06-04T06:36:30;3.53;;;1.30;;
25609;SDS011;13479;49.044;8.716;2023-06-04T06:38:57;2.13;;;1.30;;
25609;SDS011;13479;49.044;8.716;2023-06-04T06:41:22;4.05;;;1.40;;
25609;SDS011;13479;49.044;8.716;2023-06-04T06:43:48;4.93;;;1.40;;
25609;SDS011;13479;49.044;8.716;2023-06-04T06:46:13;2.75;;;1.15;;
25609;SDS011;13479;49.044;8.716;2023-06-04T06:48:38;2.22;;;1.20;;
25609;SDS011;13479;49.044;8.716;2023-06-04T06:51:04;1.42;;;1.02;;
25609;SDS011;13479;49.044;8.716;2023-06-04T06:53:29;4.65;;;1.27;;
25609;SDS011;13479;49.044;8.716;2023-06-04T06:55:54;3.92;;;1.33;;
25609;SDS011;13479;49.044;8.716;2023-06-04T06:58:21;2.75;;;1.30;;
25609;SDS011;13479;49.044;8.716;2023-06-04T07:00:48;4.22;;;1.50;;
25609;SDS011;13479;49.044;8.716;2023-06-04T07:03:13;1.98;;;1.15;;
25609;SDS011;13479;49.044;8.716;2023-06-04T07:05:38;3.90;;;1.40;;
25609;SDS011;13479;49.044;8.716;2023-06-04T07:08:03;4.40;;;1.30;;
25609;SDS011;13479;49.044;8.716;2023-06-04T07:10:29;3.47;;;1.45;;
25609;SDS011;13479;49.044;8.716;2023-06-04T07:12:55;4.63;;;1.48;;
25609;SDS011;13479;49.044;8.716;2023-06-04T07:15:20;3.85;;;1.33;;
25609;SDS011;13479;49.044;8.716;2023-06-04T07:17:45;2.78;;;1.33;;
25609;SDS011;13479;49.044;8.716;2023-06-04T07:20:10;1.92;;;1.25;;
25609;SDS011;13479;49.044;8.716;2023-06-04T07:22:36;2.03;;;1.30;;
25609;SDS011;13479;49.044;8.716;2023-06-04T07:25:01;2.65;;;1.30;;
25609;SDS011;13479;49.044;8.716;2023-06-04T07:27:27;1.98;;;1.40;;
25609;SDS011;13479;49.044;8.716;2023-06-04T07:29:52;4.05;;;1.30;;
25609;SDS011;13479;49.044;8.716;2023-06-04T07:32:18;2.45;;;1.20;;
25609;SDS011;13479;49.044;8.716;2023-06-04T07:34:43;2.65;;;1.33;;
25609;SDS011;13479;49.044;8.716;2023-06-04T07:37:08;5.15;;;1.30;;
25609;SDS011;13479;49.044;8.716;2023-06-04T07:39:34;2.55;;;1.30;;
25609;SDS011;13479;49.044;8.716;2023-06-04T07:42:00;5.57;;;1.60;;
25609;SDS011;13479;49.044;8.716;2023-06-04T07:44:25;6.25;;;1.50;;
25609;SDS011;13479;49.044;8.716;2023-06-04T07:46:50;2.75;;;1.30;;
25609;SDS011;13479;49.044;8.716;2023-06-04T07:49:15;3.08;;;1.40;;
25609;SDS011;13479;49.044;8.716;2023-06-04T07:51:41;1.98;;;1.20;;
25609;SDS011;13479;49.044;8.716;2023-06-04T07:54:06;3.78;;;1.30;;
25609;SDS011;13479;49.044;8.716;2023-06-04T07:56:32;2.90;;;1.20;;
25609;SDS011;13479;49.044;8.716;2023-06-04T07:58:57;4.28;;;1.30;;
25609;SDS011;13479;49.044;8.716;2023-06-04T08:01:22;1.98;;;1.02;;
25609;SDS011;13479;49.044;8.716;2023-06-04T08:03:48;3.20;;;1.30;;
25609;SDS011;13479;49.044;8.716;2023-06-04T08:06:14;3.70;;;1.45;;
25609;SDS011;13479;49.044;8.716;2023-06-04T08:08:42;3.50;;;1.27;;
25609;SDS011;13479;49.044;8.716;2023-06-04T08:11:11;2.38;;;1.30;;
25609;SDS011;13479;49.044;8.716;2023-06-04T08:13:36;2.60;;;1.20;;
25609;SDS011;13479;49.044;8.716;2023-06-04T08:16:02;6.05;;;1.40;;
25609;SDS011;13479;49.044;8.716;2023-06-04T08:18:27;2.17;;;1.13;;
25609;SDS011;13479;49.044;8.716;2023-06-04T08:20:52;3.22;;;1.27;;
25609;SDS011;13479;49.044;8.716;2023-06-04T08:23:17;1.77;;;1.38;;
25609;SDS011;13479;49.044;8.716;2023-06-04T08:25:43;5.82;;;1.50;;
25609;SDS011;13479;49.044;8.716;2023-06-04T08:28:08;1.50;;;1.20;;
25609;SDS011;13479;49.044;8.716;2023-06-04T08:30:34;2.40;;;1.30;;
25609;SDS011;13479;49.044;8.716;2023-06-04T08:33:00;5.18;;;1.60;;
25609;SDS011;13479;49.044;8.716;2023-06-04T08:35:26;3.88;;;1.60;;
25609;SDS011;13479;49.044;8.716;2023-06-04T08:37:51;2.85;;;1.40;;
25609;SDS011;13479;49.044;8.716;2023-06-04T08:40:17;2.85;;;1.20;;
25609;SDS011;13479;49.044;8.716;2023-06-04T08:42:43;2.88;;;1.58;;
25609;SDS011;13479;49.044;8.716;2023-06-04T08:45:10;1.90;;;1.40;;
25609;SDS011;13479;49.044;8.716;2023-06-04T08:47:43;4.85;;;1.40;;
25609;SDS011;13479;49.044;8.716;2023-06-04T08:50:12;3.70;;;1.33;;
25609;SDS011;13479;49.044;8.716;2023-06-04T08:52:41;3.63;;;1.60;;
25609;SDS011;13479;49.044;8.716;2023-06-04T08:55:08;4.13;;;1.50;;
25609;SDS011;13479;49.044;8.716;2023-06-04T08:57:36;4.05;;;1.40;;
25609;SDS011;13479;49.044;8.716;2023-06-04T09:00:01;3.13;;;1.30;;
25609;SDS011;13479;49.044;8.716;2023-06-04T09:02:29;1.75;;;1.20;;
25609;SDS011;13479;49.044;8.716;2023-06-04T09:04:54;2.47;;;1.17;;
25609;SDS011;13479;49.044;8.716;2023-06-04T09:07:20;3.20;;;1.35;;
25609;SDS011;13479;49.044;8.716;2023-06-04T09:09:46;2.63;;;1.30;;
25609;SDS011;13479;49.044;8.716;2023-06-04T09:12:16;3.08;;;1.40;;
25609;SDS011;13479;49.044;8.716;2023-06-04T09:14:49;4.10;;;1.23;;
25609;SDS011;13479;49.044;8.716;2023-06-04T09:17:15;4.07;;;1.58;;
25609;SDS011;13479;49.044;8.716;2023-06-04T09:19:45;3.72;;;1.40;;
25609;SDS011;13479;49.044;8.716;2023-06-04T09:22:11;5.13;;;1.45;;
25609;SDS011;13479;49.044;8.716;2023-06-04T09:24:46;1.88;;;1.20;;
25609;SDS011;13479;49.044;8.716;2023-06-04T09:27:18;2.25;;;1.27;;
25609;SDS011;13479;49.044;8.716;2023-06-04T09:32:22;3.20;;;1.30;;
25609;SDS011;13479;49.044;8.716;2023-06-04T09:34:55;1.80;;;1.25;;
25609;SDS011;13479;49.044;8.716;2023-06-04T09:37:22;2.70;;;1.20;;
25609;SDS011;13479;49.044;8.716;2023-06-04T09:39:54;2.92;;;1.30;;
25609;SDS011;13479;49.044;8.716;2023-06-04T09:42:23;2.92;;;1.38;;
25609;SDS011;13479;49.044;8.716;2023-06-04T09:44:49;3.78;;;1.50;;
25609;SDS011;13479;49.044;8.716;2023-06-04T09:47:14;4.30;;;1.25;;
25609;SDS011;13479;49.044;8.716;2023-06-04T09:49:41;2.63;;;1.30;;
25609;SDS011;13479;49.044;8.716;2023-06-04T09:52:10;5.50;;;1.42;;
25609;SDS011;13479;49.044;8.716;2023-06-04T09:54:37;5.07;;;1.45;;
25609;SDS011;13479;49.044;8.716;2023-06-04T09:57:19;2.13;;;1.30;;
25609;SDS011;13479;49.044;8.716;2023-06-04T09:59:47;2.40;;;1.30;;
25609;SDS011;13479;49.044;8.716;2023-06-04T10:02:16;4.15;;;1.50;;
25609;SDS011;13479;49.044;8.716;2023-06-04T10:04:48;3.75;;;1.40;;
25609;SDS011;13479;49.044;8.716;2023-06-04T10:07:18;2.15;;;1.30;;
25609;SDS011;13479;49.044;8.716;2023-06-04T10:09:44;3.35;;;1.45;;
25609;SDS011;13479;49.044;8.716;2023-06-04T10:12:13;3.92;;;1.77;;
25609;SDS011;13479;49.044;8.716;2023-06-04T10:14:50;5.20;;;1.45;;
25609;SDS011;13479;49.044;8.716;2023-06-04T10:17:17;6.22;;;1.48;;
25609;SDS011;13479;49.044;8.716;2023-06-04T10:19:46;3.25;;;1.50;;
25609;SDS011;13479;49.044;8.716;2023-06-04T10:22:14;3.30;;;1.25;;
25609;SDS011;13479;49.044;8.716;2023-06-04T10:24:39;2.90;;;1.35;;
25609;SDS011;13479;49.044;8.716;2023-06-04T10:27:05;1.88;;;1.20;;
25609;SDS011;13479;49.044;8.716;2023-06-04T10:29:35;5.57;;;1.60;;
25609;SDS011;13479;49.044;8.716;2023-06-04T10:32:01;4.60;;;1.35;;
25609;SDS011;13479;49.044;8.716;2023-06-04T10:34:27;3.10;;;1.25;;
25609;SDS011;13479;49.044;8.716;2023-06-04T10:36:52;3.28;;;1.40;;
25609;SDS011;13479;49.044;8.716;2023-06-04T10:39:27;2.42;;;1.10;;
25609;SDS011;13479;49.044;8.716;2023-06-04T10:41:57;2.72;;;1.00;;
25609;SDS011;13479;49.044;8.716;2023-06-04T10:44:24;2.58;;;1.10;;
25609;SDS011;13479;49.044;8.716;2023-06-04T10:46:49;2.70;;;1.13;;
25609;SDS011;13479;49.044;8.716;2023-06-04T10:49:25;2.65;;;1.00;;
25609;SDS011;13479;49.044;8.716;2023-06-04T10:51:52;1.88;;;1.20;;
25609;SDS011;13479;49.044;8.716;2023-06-04T10:54:23;3.70;;;1.33;;
25609;SDS011;13479;49.044;8.716;2023-06-04T10:56:52;2.72;;;1.38;;
25609;SDS011;13479;49.044;8.716;2023-06-04T10:59:21;4.10;;;1.35;;
25609;SDS011;13479;49.044;8.716;2023-06-04T11:01:49;3.30;;;1.67;;
25609;SDS011;13479;49.044;8.716;2023-06-04T11:04:18;6.25;;;1.48;;
25609;SDS011;13479;49.044;8.716;2023-06-04T11:06:59;2.00;;;1.30;;
25609;SDS011;13479;49.044;8.716;2023-06-04T11:09:29;2.25;;;1.58;;
25609;SDS011;13479;49.044;8.716;2023-06-04T11:12:01;3.67;;;1.45;;
25609;SDS011;13479;49.044;8.716;2023-06-04T11:14:27;3.22;;;1.60;;
25609;SDS011;13479;49.044;8.716;2023-06-04T11:16:52;5.30;;;1.50;;
25609;SDS011;13479;49.044;8.716;2023-06-04T11:19:18;3.60;;;1.73;;
25609;SDS011;13479;49.044;8.716;2023-06-04T11:21:43;3.25;;;1.50;;
25609;SDS011;13479;49.044;8.716;2023-06-04T11:24:09;2.67;;;1.50;;
25609;SDS011;13479;49.044;8.716;2023-06-04T11:26:36;3.15;;;1.75;;
25609;SDS011;13479;49.044;8.716;2023-06-04T11:29:05;4.82;;;1.63;;
25609;SDS011;13479;49.044;8.716;2023-06-04T11:31:41;7.88;;;1.48;;
25609;SDS011;13479;49.044;8.716;2023-06-04T11:34:07;4.45;;;1.70;;
25609;SDS011;13479;49.044;8.716;2023-06-04T11:36:33;2.38;;;1.50;;
25609;SDS011;13479;49.044;8.716;2023-06-04T11:38:59;3.63;;;1.50;;
25609;SDS011;13479;49.044;8.716;2023-06-04T11:41:29;3.83;;;1.80;;
25609;SDS011;13479;49.044;8.716;2023-06-04T11:43:55;7.85;;;1.75;;
25609;SDS011;13479;49.044;8.716;2023-06-04T11:46:22;5.20;;;1.63;;
25609;SDS011;13479;49.044;8.716;2023-06-04T11:48:47;3.92;;;1.52;;
25609;SDS011;13479;49.044;8.716;2023-06-04T11:51:15;2.15;;;1.00;;
25609;SDS011;13479;49.044;8.716;2023-06-04T11:53:40;1.98;;;1.05;;
25609;SDS011;13479;49.044;8.716;2023-06-04T11:56:06;2.95;;;1.67;;
25609;SDS011;13479;49.044;8.716;2023-06-04T11:58:32;4.45;;;1.80;;
25609;SDS011;13479;49.044;8.716;2023-06-04T12:00:57;4.13;;;1.77;;
25609;SDS011;13479;49.044;8.716;2023-06-04T12:03:37;4.93;;;1.65;;
25609;SDS011;13479;49.044;8.716;2023-06-04T12:11:33;4.80;;;1.77;;
25609;SDS011;13479;49.044;8.716;2023-06-04T12:14:00;4.65;;;1.70;;
25609;SDS011;13479;49.044;8.716;2023-06-04T12:16:28;3.50;;;1.55;;
25609;SDS011;13479;49.044;8.716;2023-06-04T12:19:10;3.25;;;1.60;;
25609;SDS011;13479;49.044;8.716;2023-06-04T12:21:37;4.35;;;1.70;;
25609;SDS011;13479;49.044;8.716;2023-06-04T12:24:10;4.30;;;1.90;;
25609;SDS011;13479;49.044;8.716;2023-06-04T12:26:38;6.00;;;1.77;;
25609;SDS011;13479;49.044;8.716;2023-06-04T12:29:09;3.97;;;1.67;;
25609;SDS011;13479;49.044;8.716;2023-06-04T12:31:36;4.18;;;1.67;;
25609;SDS011;13479;49.044;8.716;2023-06-04T12:34:02;4.82;;;1.95;;
25609;SDS011;13479;49.044;8.716;2023-06-04T12:36:28;2.80;;;1.80;;
25609;SDS011;13479;49.044;8.716;2023-06-04T12:38:55;3.67;;;1.80;;
25609;SDS011;13479;49.044;8.716;2023-06-04T12:41:23;3.42;;;1.85;;
25609;SDS011;13479;49.044;8.716;2023-06-04T12:43:48;4.28;;;1.90;;
25609;SDS011;13479;49.044;8.716;2023-06-04T12:46:13;3.33;;;1.90;;
25609;SDS011;13479;49.044;8.716;2023-06-04T12:48:39;4.15;;;1.48;;
25609;SDS011;13479;49.044;8.716;2023-06-04T12:51:04;7.18;;;1.65;;
25609;SDS011;13479;49.044;8.716;2023-06-04T12:53:29;3.95;;;1.75;;
25609;SDS011;13479;49.044;8.716;2023-06-04T12:55:55;4.50;;;1.85;;
25609;SDS011;13479;49.044;8.716;2023-06-04T12:58:20;3.80;;;1.85;;
25609;SDS011;13479;49.044;8.716;2023-06-04T13:00:45;5.28;;;2.33;;
25609;SDS011;13479;49.044;8.716;2023-06-04T13:03:10;5.18;;;2.00;;
25609;SDS011;13479;49.044;8.716;2023-06-04T13:05:36;3.83;;;1.88;;
25609;SDS011;13479;49.044;8.716;2023-06-04T13:08:01;3.60;;;2.00;;
25609;SDS011;13479;49.044;8.716;2023-06-04T13:10:27;4.32;;;2.00;;
25609;SDS011;13479;49.044;8.716;2023-06-04T13:12:52;3.28;;;1.90;;
25609;SDS011;13479;49.044;8.716;2023-06-04T13:15:17;4.55;;;1.70;;
25609;SDS011;13479;49.044;8.716;2023-06-04T13:17:42;8.65;;;2.08;;
25609;SDS011;13479;49.044;8.716;2023-06-04T13:20:08;5.28;;;1.83;;
25609;SDS011;13479;49.044;8.716;2023-06-04T13:22:34;5.57;;;2.00;;
25609;SDS011;13479;49.044;8.716;2023-06-04T13:24:59;2.58;;;1.88;;
25609;SDS011;13479;49.044;8.716;2023-06-04T13:27:25;3.95;;;2.00;;
25609;SDS011;13479;49.044;8.716;2023-06-04T13:29:50;2.30;;;1.67;;
25609;SDS011;13479;49.044;8.716;2023-06-04T13:32:15;3.78;;;1.70;;
25609;SDS011;13479;49.044;8.716;2023-06-04T13:34:40;4.20;;;1.77;;
25609;SDS011;13479;49.044;8.716;2023-06-04T13:37:06;3.63;;;2.00;;
25609;SDS011;13479;49.044;8.716;2023-06-04T13:39:31;4.22;;;1.98;;
25609;SDS011;13479;49.044;8.716;2023-06-04T13:41:57;2.80;;;1.67;;
25609;SDS011;13479;49.044;8.716;2023-06-04T13:44:22;4.88;;;1.90;;
25609;SDS011;13479;49.044;8.716;2023-06-04T13:46:51;4.35;;;2.00;;
25609;SDS011;13479;49.044;8.716;2023-06-04T13:49:17;3.80;;;1.83;;
25609;SDS011;13479;49.044;8.716;2023-06-04T13:51:42;4.78;;;1.92;;
25609;SDS011;13479;49.044;8.716;2023-06-04T13:54:07;3.83;;;2.08;;
25609;SDS011;13479;49.044;8.716;2023-06-04T13:56:32;4.68;;;2.10;;
25609;SDS011;13479;49.044;8.716;2023-06-04T13:58:58;4.13;;;2.00;;
25609;SDS011;13479;49.044;8.716;2023-06-04T14:01:24;4.13;;;2.00;;
25609;SDS011;13479;49.044;8.716;2023-06-04T14:03:49;3.30;;;1.83;;
25609;SDS011;13479;49.044;8.716;2023-06-04T14:06:15;3.65;;;2.05;;
25609;SDS011;13479;49.044;8.716;2023-06-04T14:08:40;2.80;;;1.60;;
25609;SDS011;13479;49.044;8.716;2023-06-04T14:11:05;3.63;;;1.80;;
25609;SDS011;13479;49.044;8.716;2023-06-04T14:13:31;3.88;;;2.20;;
25609;SDS011;13479;49.044;8.716;2023-06-04T14:15:56;4.22;;;2.15;;
25609;SDS011;13479;49.044;8.716;2023-06-04T14:18:21;5.72;;;1.90;;
25609;SDS011;13479;49.044;8.716;2023-06-04T14:20:47;5.53;;;3.10;;
25609;SDS011;13479;49.044;8.716;2023-06-04T14:23:12;2.90;;;1.90;;
25609;SDS011;13479;49.044;8.716;2023-06-04T14:25:37;3.58;;;1.90;;
25609;SDS011;13479;49.044;8.716;2023-06-04T14:28:03;4.50;;;2.20;;
25609;SDS011;13479;49.044;8.716;2023-06-04T14:30:28;4.45;;;1.95;;
25609;SDS011;13479;49.044;8.716;2023-06-04T14:32:53;4.75;;;1.77;;
25609;SDS011;13479;49.044;8.716;2023-06-04T14:35:18;3.45;;;2.00;;
25609;SDS011;13479;49.044;8.716;2023-06-04T14:37:44;3.55;;;1.90;;
25609;SDS011;13479;49.044;8.716;2023-06-04T14:40:09;2.10;;;1.45;;
25609;SDS011;13479;49.044;8.716;2023-06-04T14:42:36;3.05;;;1.80;;
25609;SDS011;13479;49.044;8.716;2023-06-04T14:45:01;2.90;;;1.98;;
25609;SDS011;13479;49.044;8.716;2023-06-04T14:47:27;7.20;;;1.63;;
25609;SDS011;13479;49.044;8.716;2023-06-04T14:49:52;5.00;;;1.60;;
25609;SDS011;13479;49.044;8.716;2023-06-04T14:52:17;2.35;;;1.50;;
25609;SDS011;13479;49.044;8.716;2023-06-04T14:54:42;2.40;;;1.48;;
25609;SDS011;13479;49.044;8.716;2023-06-04T14:57:08;3.22;;;1.52;;
25609;SDS011;13479;49.044;8.716;2023-06-04T14:59:33;6.75;;;2.05;;
25609;SDS011;13479;49.044;8.716;2023-06-04T15:02:00;2.95;;;1.83;;
25609;SDS011;13479;49.044;8.716;2023-06-04T15:04:25;2.63;;;1.73;;
25609;SDS011;13479;49.044;8.716;2023-06-04T15:06:51;4.65;;;1.67;;
25609;SDS011;13479;49.044;8.716;2023-06-04T15:09:16;3.17;;;2.22;;
25609;SDS011;13479;49.044;8.716;2023-06-04T15:11:41;2.80;;;1.80;;
25609;SDS011;13479;49.044;8.716;2023-06-04T15:14:07;4.63;;;1.80;;
25609;SDS011;13479;49.044;8.716;2023-06-04T15:16:32;2.92;;;1.90;;
25609;SDS011;13479;49.044;8.716;2023-06-04T15:18:57;2.50;;;1.50;;
25609;SDS011;13479;49.044;8.716;2023-06-04T15:21:22;4.30;;;1.98;;
25609;SDS011;13479;49.044;8.716;2023-06-04T15:23:48;5.60;;;1.80;;
25609;SDS011;13479;49.044;8.716;2023-06-04T15:26:13;2.78;;;1.50;;
25609;SDS011;13479;49.044;8.716;2023-06-04T15:28:40;5.63;;;1.63;;
25609;SDS011;13479;49.044;8.716;2023-06-04T15:31:05;3.22;;;1.92;;
25609;SDS011;13479;49.044;8.716;2023-06-04T15:33:30;3.45;;;1.90;;
25609;SDS011;13479;49.044;8.716;2023-06-04T15:35:55;2.75;;;1.70;;
25609;SDS011;13479;49.044;8.716;2023-06-04T15:38:21;2.35;;;1.60;;
25609;SDS011;13479;49.044;8.716;2023-06-04T15:40:46;3.72;;;1.92;;
25609;SDS011;13479;49.044;8.716;2023-06-04T15:43:12;2.38;;;1.48;;
25609;SDS011;13479;49.044;8.716;2023-06-04T15:45:37;3.67;;;1.85;;
25609;SDS011;13479;49.044;8.716;2023-06-04T15:48:02;3.17;;;1.80;;
25609;SDS011;13479;49.044;8.716;2023-06-04T15:50:28;3.33;;;1.52;;
25609;SDS011;13479;49.044;8.716;2023-06-04T15:52:53;3.45;;;2.00;;
25609;SDS011;13479;49.044;8.716;2023-06-04T15:55:18;3.75;;;1.90;;
25609;SDS011;13479;49.044;8.716;2023-06-04T15:57:44;3.08;;;1.83;;
25609;SDS011;13479;49.044;8.716;2023-06-04T16:00:09;4.80;;;1.90;;
25609;SDS011;13479;49.044;8.716;2023-06-04T16:02:35;2.95;;;1.50;;
25609;SDS011;13479;49.044;8.716;2023-06-04T16:05:00;2.47;;;1.75;;
25609;SDS011;13479;49.044;8.716;2023-06-04T16:07:25;4.20;;;1.60;;
25609;SDS011;13479;49.044;8.716;2023-06-04T16:09:50;2.78;;;1.70;;
25609;SDS011;13479;49.044;8.716;2023-06-04T16:12:16;3.38;;;1.80;;
25609;SDS011;13479;49.044;8.716;2023-06-04T16:14:41;2.88;;;1.70;;
25609;SDS011;13479;49.044;8.716;2023-06-04T16:17:06;3.72;;;1.58;;
25609;SDS011;13479;49.044;8.716;2023-06-04T16:19:31;3.92;;;1.50;;
25609;SDS011;13479;49.044;8.716;2023-06-04T16:21:57;3.75;;;1.80;;
25609;SDS011;13479;49.044;8.716;2023-06-04T16:24:23;4.78;;;1.75;;
25609;SDS011;13479;49.044;8.716;2023-06-04T16:26:48;7.82;;;2.00;;
25609;SDS011;13479;49.044;8.716;2023-06-04T16:29:13;4.07;;;1.80;;
25609;SDS011;13479;49.044;8.716;2023-06-04T16:31:38;8.73;;;1.83;;
25609;SDS011;13479;49.044;8.716;2023-06-04T16:34:04;2.78;;;1.52;;
25609;SDS011;13479;49.044;8.716;2023-06-04T16:36:29;2.63;;;1.90;;
25609;SDS011;13479;49.044;8.716;2023-06-04T16:38:55;7.10;;;2.67;;
25609;SDS011;13479;49.044;8.716;2023-06-04T16:41:20;7.78;;;2.08;;
25609;SDS011;13479;49.044;8.716;2023-06-04T16:43:46;2.25;;;1.77;;
25609;SDS011;13479;49.044;8.716;2023-06-04T16:46:12;2.55;;;1.77;;
25609;SDS011;13479;49.044;8.716;2023-06-04T16:48:37;3.47;;;1.80;;
25609;SDS011;13479;49.044;8.716;2023-06-04T16:51:02;4.53;;;1.73;;
25609;SDS011;13479;49.044;8.716;2023-06-04T16:53:27;3.10;;;1.73;;
25609;SDS011;13479;49.044;8.716;2023-06-04T16:55:54;3.25;;;1.90;;
25609;SDS011;13479;49.044;8.716;2023-06-04T16:58:20;3.00;;;1.60;;
25609;SDS011;13479;49.044;8.716;2023-06-04T17:00:45;3.13;;;1.55;;
25609;SDS011;13479;49.044;8.716;2023-06-04T17:03:12;2.22;;;1.40;;
25609;SDS011;13479;49.044;8.716;2023-06-04T17:05:37;4.35;;;1.88;;
25609;SDS011;13479;49.044;8.716;2023-06-04T17:08:02;4.68;;;1.92;;
25609;SDS011;13479;49.044;8.716;2023-06-04T17:10:28;3.72;;;2.10;;
25609;SDS011;13479;49.044;8.716;2023-06-04T17:12:58;2.60;;;1.80;;
25609;SDS011;13479;49.044;8.716;2023-06-04T17:15:25;3.20;;;1.65;;
25609;SDS011;13479;49.044;8.716;2023-06-04T17:17:51;6.45;;;1.98;;
25609;SDS011;13479;49.044;8.716;2023-06-04T17:20:17;3.42;;;1.67;;
25609;SDS011;13479;49.044;8.716;2023-06-04T17:22:42;5.07;;;1.90;;
25609;SDS011;13479;49.044;8.716;2023-06-04T17:25:07;5.22;;;1.90;;
25609;SDS011;13479;49.044;8.716;2023-06-04T17:27:33;3.97;;;1.52;;
25609;SDS011;13479;49.044;8.716;2023-06-04T17:29:58;3.20;;;1.83;;
25609;SDS011;13479;49.044;8.716;2023-06-04T17:32:23;2.33;;;1.42;;
25609;SDS011;13479;49.044;8.716;2023-06-04T17:34:49;3.78;;;1.58;;
25609;SDS011;13479;49.044;8.716;2023-06-04T17:37:15;3.83;;;1.77;;
25609;SDS011;13479;49.044;8.716;2023-06-04T17:39:41;4.47;;;1.70;;
25609;SDS011;13479;49.044;8.716;2023-06-04T17:42:06;2.97;;;1.60;;
25609;SDS011;13479;49.044;8.716;2023-06-04T17:44:31;2.55;;;1.70;;
25609;SDS011;13479;49.044;8.716;2023-06-04T17:46:56;3.55;;;1.73;;
25609;SDS011;13479;49.044;8.716;2023-06-04T17:49:24;4.75;;;1.73;;
25609;SDS011;13479;49.044;8.716;2023-06-04T17:51:49;4.85;;;1.75;;
25609;SDS011;13479;49.044;8.716;2023-06-04T17:54:14;3.42;;;1.80;;
25609;SDS011;13479;49.044;8.716;2023-06-04T17:56:40;3.38;;;1.70;;
25609;SDS011;13479;49.044;8.716;2023-06-04T17:59:05;4.20;;;1.90;;
25609;SDS011;13479;49.044;8.716;2023-06-04T18:01:31;3.85;;;1.40;;
25609;SDS011;13479;49.044;8.716;2023-06-04T18:03:56;3.50;;;1.80;;
25609;SDS011;13479;49.044;8.716;2023-06-04T18:06:22;2.83;;;1.65;;
25609;SDS011;13479;49.044;8.716;2023-06-04T18:08:47;3.92;;;1.60;;
25609;SDS011;13479;49.044;8.716;2023-06-04T18:11:12;3.00;;;1.58;;
25609;SDS011;13479;49.044;8.716;2023-06-04T18:13:38;2.88;;;1.60;;
25609;SDS011;13479;49.044;8.716;2023-06-04T18:16:03;2.75;;;1.50;;
25609;SDS011;13479;49.044;8.716;2023-06-04T18:18:28;2.65;;;1.50;;
25609;SDS011;13479;49.044;8.716;2023-06-04T18:20:53;2.78;;;1.58;;
25609;SDS011;13479;49.044;8.716;2023-06-04T18:23:19;3.75;;;1.27;;
25609;SDS011;13479;49.044;8.716;2023-06-04T18:25:44;3.25;;;1.67;;
25609;SDS011;13479;49.044;8.716;2023-06-04T18:28:09;3.70;;;1.30;;
25609;SDS011;13479;49.044;8.716;2023-06-04T18:30:35;4.20;;;1.70;;
25609;SDS011;13479;49.044;8.716;2023-06-04T18:33:00;22.83;;;2.00;;
25609;SDS011;13479;49.044;8.716;2023-06-04T18:35:26;3.38;;;1.70;;
25609;SDS011;13479;49.044;8.716;2023-06-04T18:37:51;4.15;;;1.65;;
25609;SDS011;13479;49.044;8.716;2023-06-04T18:40:16;7.55;;;1.50;;
25609;SDS011;13479;49.044;8.716;2023-06-04T18:42:42;2.10;;;1.30;;
25609;SDS011;13479;49.044;8.716;2023-06-04T18:45:08;4.80;;;1.67;;
25609;SDS011;13479;49.044;8.716;2023-06-04T18:47:34;4.22;;;1.40;;
25609;SDS011;13479;49.044;8.716;2023-06-04T18:50:00;3.13;;;1.60;;